Time;durP1;ratioP1;P1;durP2;ratioP2;P2;SDS_P1;SDS_P2;PMS_P1;PMS_P2;Temp;Humidity;BMP_temperature;BMP_pressure;BME280_temperature;BME280_humidity;BME280_pressure;Samples;Min_cycle;Max_cycle;Signal;HPM_P1;HPM_P2
2021/04/24 00:01:00;;;;;;;8.70;4.63;;;;;;;;;;5122080;28;20277;-71
2021/04/24 00:03:27;;;;;;;4.83;4.00;;;;;;;;;;5122106;28;20287;-71
2021/04/24 00:05:54;;;;;;;6.17;4.63;;;;;;;;;;5122122;28;20256;-71
2021/04/24 00:08:22;;;;;;;5.63;4.43;;;;;;;;;;5122250;28;20205;-71
2021/04/24 00:10:49;;;;;;;6.43;4.33;;;;;;;;;;5121939;28;20205;-71
2021/04/24 00:13:16;;;;;;;5.47;4.27;;;;;;;;;;5121820;28;20237;-72
2021/04/24 00:15:44;;;;;;;7.00;4.63;;;;;;;;;;5121668;28;20359;-71
2021/04/24 00:18:11;;;;;;;5.53;4.13;;;;;;;;;;5118126;28;20200;-71
2021/04/24 00:20:39;;;;;;;7.50;4.43;;;;;;;;;;5121810;28;20208;-71
2021/04/24 00:23:06;;;;;;;4.57;4.17;;;;;;;;;;5121715;28;20197;-71
2021/04/24 00:25:34;;;;;;;5.87;4.53;;;;;;;;;;5121457;28;20265;-71
2021/04/24 00:28:02;;;;;;;6.77;4.80;;;;;;;;;;5121174;28;20312;-71
2021/04/24 00:30:29;;;;;;;10.30;5.20;;;;;;;;;;5121390;28;20566;-71
2021/04/24 00:32:56;;;;;;;9.90;5.00;;;;;;;;;;5121593;27;20243;-71
2021/04/24 00:35:23;;;;;;;6.80;4.80;;;;;;;;;;5121064;28;20217;-71
2021/04/24 00:37:50;;;;;;;6.90;5.13;;;;;;;;;;5121281;28;20222;-71
2021/04/24 00:40:18;;;;;;;9.90;5.57;;;;;;;;;;5121162;28;20196;-71
2021/04/24 00:42:46;;;;;;;9.37;5.63;;;;;;;;;;5121346;28;20286;-71
2021/04/24 00:45:15;;;;;;;9.27;5.33;;;;;;;;;;5121261;28;20228;-71
2021/04/24 00:47:42;;;;;;;8.27;5.60;;;;;;;;;;5121553;28;20208;-70
2021/04/24 00:50:10;;;;;;;7.73;5.47;;;;;;;;;;5121567;28;20213;-71
2021/04/24 00:52:37;;;;;;;6.90;4.97;;;;;;;;;;5120157;28;20205;-71
2021/04/24 00:55:05;;;;;;;7.57;5.83;;;;;;;;;;5120980;28;20315;-71
2021/04/24 00:57:32;;;;;;;8.93;5.37;;;;;;;;;;5121141;28;20259;-71
2021/04/24 01:00:00;;;;;;;9.23;5.87;;;;;;;;;;5121291;28;20288;-71
2021/04/24 01:02:28;;;;;;;7.70;5.90;;;;;;;;;;5121195;28;20268;-71
2021/04/24 01:04:55;;;;;;;8.37;5.00;;;;;;;;;;5121182;27;20232;-71
2021/04/24 01:07:22;;;;;;;12.97;6.20;;;;;;;;;;5121093;28;20288;-71
2021/04/24 01:09:49;;;;;;;7.10;5.17;;;;;;;;;;5120794;28;20287;-71
2021/04/24 01:12:16;;;;;;;8.30;4.87;;;;;;;;;;5120924;28;20236;-71
2021/04/24 01:14:43;;;;;;;13.23;5.67;;;;;;;;;;5121037;28;20229;-71
2021/04/24 01:17:10;;;;;;;11.07;5.63;;;;;;;;;;5120628;28;20663;-71
2021/04/24 01:19:38;;;;;;;8.97;4.73;;;;;;;;;;5120660;28;20250;-71
2021/04/24 01:22:08;;;;;;;7.90;5.03;;;;;;;;;;5120830;28;20236;-71
2021/04/24 01:24:35;;;;;;;6.93;4.63;;;;;;;;;;5120403;28;20281;-71
2021/04/24 01:27:02;;;;;;;5.10;4.60;;;;;;;;;;5120565;28;20250;-71
2021/04/24 01:29:29;;;;;;;6.10;4.80;;;;;;;;;;5120725;28;20232;-71
2021/04/24 01:32:00;;;;;;;4.90;4.40;;;;;;;;;;5120329;28;20213;-71
2021/04/24 01:34:27;;;;;;;4.63;4.23;;;;;;;;;;5120444;27;20223;-71
2021/04/24 01:36:55;;;;;;;6.17;4.70;;;;;;;;;;5120520;28;20240;-71
2021/04/24 01:39:24;;;;;;;6.53;4.30;;;;;;;;;;5120203;28;20287;-71
2021/04/24 01:41:51;;;;;;;6.67;4.60;;;;;;;;;;5120233;28;20268;-71
2021/04/24 01:44:18;;;;;;;5.63;4.73;;;;;;;;;;5120548;28;20214;-71
2021/04/24 01:46:45;;;;;;;5.33;4.30;;;;;;;;;;5120170;28;20240;-71
2021/04/24 01:49:12;;;;;;;8.27;5.00;;;;;;;;;;5120373;28;20209;-71
2021/04/24 01:51:39;;;;;;;7.37;4.90;;;;;;;;;;5120255;28;20292;-71
2021/04/24 01:54:07;;;;;;;8.10;4.47;;;;;;;;;;5119731;28;20744;-71
2021/04/24 01:56:46;;;;;;;7.77;4.53;;;;;;;;;;5119783;28;20224;-71
2021/04/24 01:59:14;;;;;;;4.97;4.37;;;;;;;;;;5120098;28;20236;-71
2021/04/24 02:01:41;;;;;;;5.70;3.83;;;;;;;;;;5119769;28;20296;-71
2021/04/24 02:04:08;;;;;;;5.40;3.67;;;;;;;;;;5119441;28;20278;-71
2021/04/24 02:06:35;;;;;;;6.23;3.63;;;;;;;;;;5120017;28;20228;-70
2021/04/24 02:09:03;;;;;;;3.93;3.23;;;;;;;;;;5119456;28;20212;-71
2021/04/24 02:11:30;;;;;;;6.50;3.47;;;;;;;;;;5119677;28;20204;-71
2021/04/24 02:13:58;;;;;;;5.67;4.20;;;;;;;;;;5119566;28;20245;-70
2021/04/24 02:16:25;;;;;;;9.60;4.13;;;;;;;;;;5119691;28;20316;-71
2021/04/24 02:18:52;;;;;;;5.77;3.70;;;;;;;;;;5119784;28;20205;-71
2021/04/24 02:21:19;;;;;;;4.03;3.63;;;;;;;;;;5119844;28;20208;-71
2021/04/24 02:23:46;;;;;;;6.07;3.90;;;;;;;;;;5119608;28;20232;-70
2021/04/24 02:26:14;;;;;;;6.57;4.13;;;;;;;;;;5119211;28;20217;-70
2021/04/24 02:28:41;;;;;;;4.33;3.77;;;;;;;;;;5119267;28;20241;-70
2021/04/24 02:31:08;;;;;;;5.93;3.83;;;;;;;;;;5119500;28;20240;-70
2021/04/24 02:33:35;;;;;;;5.53;4.03;;;;;;;;;;5119145;27;20284;-71
2021/04/24 02:36:03;;;;;;;5.73;4.23;;;;;;;;;;5119199;28;20307;-71
2021/04/24 02:38:31;;;;;;;9.50;4.10;;;;;;;;;;5119389;28;20266;-71
2021/04/24 02:40:59;;;;;;;5.27;4.50;;;;;;;;;;5119070;28;20288;-70
2021/04/24 02:43:26;;;;;;;6.23;4.40;;;;;;;;;;5118889;28;20272;-71
2021/04/24 02:45:53;;;;;;;7.27;5.00;;;;;;;;;;5119113;28;20280;-71
2021/04/24 02:48:21;;;;;;;9.03;4.80;;;;;;;;;;5119118;28;20216;-70
2021/04/24 02:50:48;;;;;;;6.37;4.67;;;;;;;;;;5119188;28;20288;-70
2021/04/24 02:53:16;;;;;;;5.97;4.40;;;;;;;;;;5118834;28;20641;-70
2021/04/24 02:55:43;;;;;;;7.67;4.60;;;;;;;;;;5118548;28;20271;-70
2021/04/24 02:58:11;;;;;;;7.03;5.00;;;;;;;;;;5118908;28;20204;-71
2021/04/24 03:00:38;;;;;;;9.23;5.10;;;;;;;;;;5118994;28;20284;-70
2021/04/24 03:03:06;;;;;;;4.40;4.00;;;;;;;;;;5118939;28;20214;-70
2021/04/24 03:05:34;;;;;;;5.17;4.67;;;;;;;;;;5118536;28;20665;-70
2021/04/24 03:08:01;;;;;;;4.93;4.43;;;;;;;;;;5118871;28;20287;-70
2021/04/24 03:10:29;;;;;;;9.23;5.13;;;;;;;;;;5118746;28;20236;-70
2021/04/24 03:12:56;;;;;;;6.20;5.10;;;;;;;;;;5119045;28;20637;-71
2021/04/24 03:15:23;;;;;;;7.60;4.90;;;;;;;;;;5118481;28;20316;-71
2021/04/24 03:17:51;;;;;;;6.43;4.73;;;;;;;;;;5118762;28;20260;-70
2021/04/24 03:20:19;;;;;;;6.43;5.03;;;;;;;;;;5118441;28;20632;-70
2021/04/24 03:22:47;;;;;;;6.73;5.23;;;;;;;;;;5118701;28;20219;-71
2021/04/24 03:25:14;;;;;;;7.90;4.80;;;;;;;;;;5117943;28;20342;-71
2021/04/24 03:27:41;;;;;;;7.30;5.00;;;;;;;;;;5118245;28;20261;-70
2021/04/24 03:30:09;;;;;;;6.67;5.10;;;;;;;;;;5118280;28;20635;-71
2021/04/24 03:32:37;;;;;;;5.80;4.50;;;;;;;;;;5118241;28;20288;-71
2021/04/24 03:35:04;;;;;;;6.37;5.00;;;;;;;;;;5118275;28;20228;-70
2021/04/24 03:37:31;;;;;;;6.27;4.70;;;;;;;;;;5118094;28;20312;-70
2021/04/24 03:39:59;;;;;;;9.23;5.00;;;;;;;;;;5118018;28;20236;-70
2021/04/24 03:42:26;;;;;;;5.53;4.50;;;;;;;;;;5118302;28;20264;-70
2021/04/24 03:44:53;;;;;;;6.53;4.70;;;;;;;;;;5118366;28;20308;-70
2021/04/24 03:47:20;;;;;;;5.40;4.47;;;;;;;;;;5118343;28;20236;-70
2021/04/24 03:49:47;;;;;;;7.50;4.83;;;;;;;;;;5118099;28;20291;-70
2021/04/24 03:52:14;;;;;;;6.43;4.80;;;;;;;;;;5118474;28;20236;-71
2021/04/24 03:54:41;;;;;;;7.00;4.83;;;;;;;;;;5117664;28;20742;-70
2021/04/24 03:57:09;;;;;;;7.80;4.67;;;;;;;;;;5118194;28;20284;-70
2021/04/24 03:59:36;;;;;;;4.97;4.23;;;;;;;;;;5118230;28;20208;-70
2021/04/24 04:02:03;;;;;;;5.90;3.97;;;;;;;;;;5118232;28;20240;-70
2021/04/24 04:04:30;;;;;;;7.63;4.53;;;;;;;;;;5118097;28;20229;-70
2021/04/24 04:06:57;;;;;;;7.53;4.63;;;;;;;;;;5117899;28;20235;-70
2021/04/24 04:09:24;;;;;;;6.50;4.87;;;;;;;;;;5117805;28;20244;-70
2021/04/24 04:11:51;;;;;;;7.87;5.40;;;;;;;;;;5118184;28;20291;-70
2021/04/24 04:14:19;;;;;;;5.83;5.20;;;;;;;;;;5118028;28;20289;-70
2021/04/24 04:16:46;;;;;;;8.63;5.63;;;;;;;;;;5117847;28;20243;-70
2021/04/24 04:19:14;;;;;;;7.43;5.37;;;;;;;;;;5118052;28;20268;-70
2021/04/24 04:21:41;;;;;;;8.37;5.77;;;;;;;;;;5118078;28;20293;-70
2021/04/24 04:24:08;;;;;;;7.80;5.30;;;;;;;;;;5117593;28;20211;-70
2021/04/24 04:26:35;;;;;;;7.37;5.77;;;;;;;;;;5118103;28;20201;-69
2021/04/24 04:29:02;;;;;;;9.50;5.43;;;;;;;;;;5121419;28;20320;-70
2021/04/24 04:31:30;;;;;;;6.83;5.40;;;;;;;;;;5121871;27;20264;-70
2021/04/24 04:34:00;;;;;;;9.23;6.43;;;;;;;;;;5121614;28;20201;-71
2021/04/24 04:36:26;;;;;;;8.37;5.90;;;;;;;;;;5121378;28;20231;-71
2021/04/24 04:38:53;;;;;;;7.27;5.50;;;;;;;;;;5121363;28;20635;-71
2021/04/24 04:41:25;;;;;;;9.40;5.73;;;;;;;;;;5121141;28;20637;-70
2021/04/24 04:43:52;;;;;;;7.57;5.57;;;;;;;;;;5121616;28;20260;-70
2021/04/24 04:46:19;;;;;;;11.90;5.57;;;;;;;;;;5121389;28;20778;-70
2021/04/24 04:48:48;;;;;;;7.47;5.63;;;;;;;;;;5121355;28;20561;-70
2021/04/24 04:51:15;;;;;;;6.87;5.47;;;;;;;;;;5121445;28;20205;-71
2021/04/24 04:53:43;;;;;;;9.03;6.17;;;;;;;;;;5121465;28;20240;-71
2021/04/24 04:56:12;;;;;;;7.60;6.83;;;;;;;;;;5120735;28;20320;-71
2021/04/24 04:58:39;;;;;;;11.33;7.30;;;;;;;;;;5121328;28;20287;-69
2021/04/24 05:01:11;;;;;;;9.80;6.60;;;;;;;;;;5121025;28;20212;-71
2021/04/24 05:03:38;;;;;;;12.80;8.23;;;;;;;;;;5121304;28;20204;-71
2021/04/24 05:06:06;;;;;;;11.50;8.70;;;;;;;;;;5120925;28;20287;-71
2021/04/24 05:08:35;;;;;;;19.30;10.77;;;;;;;;;;5120884;28;20644;-71
2021/04/24 05:11:02;;;;;;;18.83;12.00;;;;;;;;;;5120786;28;20232;-70
2021/04/24 05:13:29;;;;;;;19.33;13.07;;;;;;;;;;5120937;28;20292;-72
2021/04/24 05:15:56;;;;;;;22.13;14.97;;;;;;;;;;5120811;28;20281;-71
2021/04/24 05:18:23;;;;;;;21.37;13.00;;;;;;;;;;5120926;28;20288;-69
2021/04/24 05:20:51;;;;;;;13.00;7.77;;;;;;;;;;5120864;28;20208;-70
2021/04/24 05:23:19;;;;;;;9.10;6.70;;;;;;;;;;5121122;27;20548;-71
2021/04/24 05:25:46;;;;;;;11.73;7.00;;;;;;;;;;5120429;28;20316;-70
2021/04/24 05:28:14;;;;;;;10.50;6.10;;;;;;;;;;5120296;28;20315;-70
2021/04/24 05:30:41;;;;;;;9.00;5.50;;;;;;;;;;5120455;28;20232;-71
2021/04/24 05:33:08;;;;;;;9.80;6.07;;;;;;;;;;5120659;28;20232;-71
2021/04/24 05:35:35;;;;;;;8.97;5.70;;;;;;;;;;5120201;28;20225;-70
2021/04/24 05:38:02;;;;;;;8.93;5.77;;;;;;;;;;5120338;28;20220;-70
2021/04/24 05:40:30;;;;;;;6.73;5.80;;;;;;;;;;5119831;28;20243;-70
2021/04/24 05:42:57;;;;;;;11.17;5.80;;;;;;;;;;5120329;28;20287;-70
2021/04/24 05:45:25;;;;;;;9.50;7.00;;;;;;;;;;5120283;28;20319;-69
2021/04/24 05:47:52;;;;;;;8.87;6.50;;;;;;;;;;5120345;28;20243;-70
2021/04/24 05:50:21;;;;;;;9.23;6.20;;;;;;;;;;5120374;28;20293;-70
2021/04/24 05:52:53;;;;;;;8.30;6.13;;;;;;;;;;5120221;28;20215;-70
2021/04/24 05:55:20;;;;;;;10.53;6.43;;;;;;;;;;5119660;28;20221;-72
2021/04/24 05:57:48;;;;;;;7.60;5.80;;;;;;;;;;5119670;28;20315;-70
2021/04/24 06:00:16;;;;;;;7.20;5.77;;;;;;;;;;5120207;28;20236;-70
2021/04/24 06:02:43;;;;;;;9.03;5.63;;;;;;;;;;5119976;28;20268;-70
2021/04/24 06:05:11;;;;;;;7.63;5.83;;;;;;;;;;5119727;28;20723;-70
2021/04/24 06:07:38;;;;;;;6.90;5.67;;;;;;;;;;5119751;28;20699;-70
2021/04/24 06:10:06;;;;;;;9.67;5.80;;;;;;;;;;5119716;28;20201;-70
2021/04/24 06:12:33;;;;;;;11.17;6.67;;;;;;;;;;5119452;28;20204;-70
2021/04/24 06:15:01;;;;;;;12.43;6.03;;;;;;;;;;5119769;28;20267;-70
2021/04/24 06:17:28;;;;;;;10.77;5.87;;;;;;;;;;5119697;28;20714;-70
2021/04/24 06:19:55;;;;;;;7.53;5.20;;;;;;;;;;5119737;28;20205;-70
2021/04/24 06:22:22;;;;;;;6.43;5.13;;;;;;;;;;5119631;27;20208;-70
2021/04/24 06:24:49;;;;;;;6.50;4.73;;;;;;;;;;5119261;28;20250;-70
2021/04/24 06:27:16;;;;;;;6.73;5.03;;;;;;;;;;5119275;28;20265;-69
2021/04/24 06:29:43;;;;;;;6.80;5.10;;;;;;;;;;5119531;28;20292;-70
2021/04/24 06:32:11;;;;;;;8.13;5.37;;;;;;;;;;5119378;28;20268;-69
2021/04/24 06:34:38;;;;;;;9.43;4.87;;;;;;;;;;5118956;28;20227;-68
2021/04/24 06:37:05;;;;;;;6.17;4.70;;;;;;;;;;5119997;27;20303;-68
2021/04/24 06:39:32;;;;;;;7.10;5.27;;;;;;;;;;5118626;28;20260;-69
2021/04/24 06:41:59;;;;;;;7.63;5.23;;;;;;;;;;5120990;27;20276;-68
2021/04/24 06:44:26;;;;;;;5.53;4.63;;;;;;;;;;5118536;28;20295;-69
2021/04/24 06:46:53;;;;;;;6.43;4.97;;;;;;;;;;5120329;27;20228;-69
2021/04/24 06:49:21;;;;;;;6.37;4.97;;;;;;;;;;5116005;28;20196;-69
2021/04/24 06:51:48;;;;;;;16.47;5.33;;;;;;;;;;5119351;27;20196;-69
2021/04/24 06:54:15;;;;;;;17.70;5.77;;;;;;;;;;5120504;27;20976;-68
2021/04/24 06:56:42;;;;;;;10.33;4.60;;;;;;;;;;5118292;28;20227;-69
2021/04/24 06:59:09;;;;;;;7.33;4.67;;;;;;;;;;5119127;27;20197;-69
2021/04/24 07:01:36;;;;;;;8.87;5.20;;;;;;;;;;5119020;28;20269;-69
2021/04/24 07:04:04;;;;;;;8.63;5.43;;;;;;;;;;5118675;28;20255;-70
2021/04/24 07:06:31;;;;;;;5.63;4.93;;;;;;;;;;5118842;28;20287;-70
2021/04/24 07:08:59;;;;;;;8.10;5.47;;;;;;;;;;5118543;28;20213;-69
2021/04/24 07:11:26;;;;;;;6.40;5.27;;;;;;;;;;5110161;28;20228;-71
2021/04/24 07:13:53;;;;;;;7.10;5.53;;;;;;;;;;5107098;28;20207;-71
2021/04/24 07:16:20;;;;;;;11.47;7.50;;;;;;;;;;5105802;28;20300;-70
2021/04/24 07:18:47;;;;;;;8.47;5.50;;;;;;;;;;5106848;28;20288;-70
2021/04/24 07:21:14;;;;;;;7.80;6.07;;;;;;;;;;5107667;28;20197;-70
2021/04/24 07:23:42;;;;;;;6.80;6.10;;;;;;;;;;5104635;28;20206;-70
2021/04/24 07:26:10;;;;;;;6.30;5.40;;;;;;;;;;5109175;28;20231;-70
2021/04/24 07:28:37;;;;;;;6.10;5.27;;;;;;;;;;5118260;28;20271;-71
2021/04/24 07:31:05;;;;;;;7.17;5.03;;;;;;;;;;5118295;28;20236;-71
2021/04/24 07:33:31;;;;;;;6.40;5.70;;;;;;;;;;5117753;28;20348;-71
2021/04/24 07:35:58;;;;;;;6.23;5.63;;;;;;;;;;5118369;28;20304;-70
2021/04/24 07:38:26;;;;;;;9.60;5.70;;;;;;;;;;5112355;27;20293;-70
2021/04/24 07:40:54;;;;;;;11.37;5.70;;;;;;;;;;5138744;27;20231;-70
2021/04/24 07:43:21;;;;;;;8.73;5.93;;;;;;;;;;5138670;27;20299;-69
2021/04/24 07:45:47;;;;;;;9.73;7.10;;;;;;;;;;5133557;27;20259;-70
2021/04/24 07:48:17;;;;;;;6.63;5.60;;;;;;;;;;5105375;28;20201;-70
2021/04/24 07:50:45;;;;;;;8.53;5.77;;;;;;;;;;5118382;28;20288;-70
2021/04/24 07:53:12;;;;;;;6.87;5.20;;;;;;;;;;5118294;28;20287;-70
2021/04/24 07:55:39;;;;;;;6.93;5.10;;;;;;;;;;5115524;28;20264;-70
2021/04/24 07:58:07;;;;;;;6.40;5.00;;;;;;;;;;5118070;28;20374;-71
2021/04/24 08:00:36;;;;;;;7.83;5.20;;;;;;;;;;5118387;28;20205;-71
2021/04/24 08:03:03;;;;;;;5.90;5.30;;;;;;;;;;5120836;28;20667;-72
2021/04/24 08:05:30;;;;;;;5.50;5.00;;;;;;;;;;5122203;28;20239;-70
2021/04/24 08:07:59;;;;;;;5.17;4.63;;;;;;;;;;5122036;28;20204;-70
2021/04/24 08:10:26;;;;;;;8.53;4.43;;;;;;;;;;5121754;28;20248;-69
2021/04/24 08:12:54;;;;;;;7.93;4.50;;;;;;;;;;5112682;28;20205;-72
2021/04/24 08:15:22;;;;;;;7.67;4.47;;;;;;;;;;5121925;28;20216;-70
2021/04/24 08:17:49;;;;;;;4.40;4.00;;;;;;;;;;5122385;28;20666;-71
2021/04/24 08:20:16;;;;;;;5.83;4.37;;;;;;;;;;5122407;28;20213;-70
2021/04/24 08:22:43;;;;;;;6.77;4.43;;;;;;;;;;5122512;28;20204;-71
2021/04/24 08:25:11;;;;;;;5.07;4.57;;;;;;;;;;5121756;28;20289;-70
2021/04/24 08:27:38;;;;;;;4.73;4.20;;;;;;;;;;5121273;28;20228;-70
2021/04/24 08:30:06;;;;;;;4.70;4.30;;;;;;;;;;5119075;28;20288;-70
2021/04/24 08:32:34;;;;;;;7.97;4.23;;;;;;;;;;5121885;28;20291;-72
2021/04/24 08:35:01;;;;;;;4.27;3.87;;;;;;;;;;5120361;28;20224;-72
2021/04/24 08:37:28;;;;;;;7.80;3.90;;;;;;;;;;5121454;28;20221;-71
2021/04/24 08:39:55;;;;;;;5.03;4.33;;;;;;;;;;5121174;28;20727;-71
2021/04/24 08:42:22;;;;;;;6.97;4.60;;;;;;;;;;5121788;28;20272;-71
2021/04/24 08:44:50;;;;;;;5.13;4.23;;;;;;;;;;5119303;28;20231;-70
2021/04/24 08:47:20;;;;;;;7.70;4.57;;;;;;;;;;5119130;28;20205;-70
2021/04/24 08:49:50;;;;;;;4.53;3.47;;;;;;;;;;5121532;28;20209;-70
2021/04/24 08:52:19;;;;;;;4.17;3.67;;;;;;;;;;5121230;28;20283;-69
2021/04/24 08:54:46;;;;;;;4.53;3.87;;;;;;;;;;5120799;28;20252;-71
2021/04/24 08:57:14;;;;;;;5.47;3.43;;;;;;;;;;5121228;28;20316;-71
2021/04/24 08:59:41;;;;;;;4.73;3.43;;;;;;;;;;5121381;28;20273;-71
2021/04/24 09:02:08;;;;;;;3.80;3.40;;;;;;;;;;5117138;28;20687;-70
2021/04/24 09:04:35;;;;;;;4.00;3.13;;;;;;;;;;5120972;28;20781;-70
2021/04/24 09:07:04;;;;;;;7.67;3.77;;;;;;;;;;5121341;28;20209;-69
2021/04/24 09:09:31;;;;;;;4.67;3.90;;;;;;;;;;5121126;28;20268;-69
2021/04/24 09:12:01;;;;;;;4.00;3.60;;;;;;;;;;5120894;28;20236;-70
2021/04/24 09:14:30;;;;;;;8.77;3.93;;;;;;;;;;5120120;28;20228;-70
2021/04/24 09:16:57;;;;;;;7.03;3.77;;;;;;;;;;5117472;28;20632;-70
2021/04/24 09:19:28;;;;;;;4.80;3.50;;;;;;;;;;5113405;28;20656;-69
2021/04/24 09:22:12;;;;;;;7.87;3.77;;;;;;;;;;5118602;28;20212;-70
2021/04/24 09:24:39;;;;;;;4.70;3.47;;;;;;;;;;5120549;27;20229;-66
2021/04/24 09:27:06;;;;;;;3.47;3.10;;;;;;;;;;5120604;28;20201;-69
2021/04/24 09:29:51;;;;;;;4.60;3.63;;;;;;;;;;5120074;28;20269;-70
2021/04/24 09:32:20;;;;;;;4.27;3.60;;;;;;;;;;5109586;28;20230;-70
2021/04/24 09:34:47;;;;;;;5.87;3.80;;;;;;;;;;5109167;28;20224;-71
2021/04/24 09:37:17;;;;;;;5.73;3.60;;;;;;;;;;5107227;28;20217;-68
2021/04/24 09:39:47;;;;;;;4.37;3.63;;;;;;;;;;5107377;28;20226;-70
2021/04/24 09:42:34;;;;;;;4.80;3.43;;;;;;;;;;5103622;28;20229;-71
2021/04/24 09:45:01;;;;;;;4.73;3.30;;;;;;;;;;5110586;28;20221;-70
2021/04/24 09:47:44;;;;;;;3.60;3.13;;;;;;;;;;5108328;28;20253;-71
2021/04/24 09:50:13;;;;;;;4.33;3.43;;;;;;;;;;5104822;28;20201;-71
2021/04/24 09:52:41;;;;;;;4.27;3.27;;;;;;;;;;5109487;28;20299;-70
2021/04/24 09:55:12;;;;;;;3.97;2.90;;;;;;;;;;5107527;28;20324;-70
2021/04/24 09:57:39;;;;;;;3.57;3.13;;;;;;;;;;5112526;28;20254;-68
2021/04/24 10:00:08;;;;;;;5.10;3.30;;;;;;;;;;5112795;28;20284;-69
2021/04/24 10:02:37;;;;;;;3.83;3.33;;;;;;;;;;5099569;28;20201;-69
2021/04/24 10:05:06;;;;;;;3.33;3.03;;;;;;;;;;5110572;28;20281;-69
2021/04/24 10:07:34;;;;;;;2.67;2.47;;;;;;;;;;5118862;28;20289;-70
2021/04/24 10:10:02;;;;;;;3.47;3.17;;;;;;;;;;5119699;28;20261;-69
2021/04/24 10:12:29;;;;;;;3.80;3.00;;;;;;;;;;5104194;28;20232;-68
2021/04/24 10:14:56;;;;;;;4.57;3.30;;;;;;;;;;5107213;28;20723;-69
2021/04/24 10:17:24;;;;;;;4.30;3.43;;;;;;;;;;5117861;28;20308;-69
2021/04/24 10:19:51;;;;;;;3.10;2.80;;;;;;;;;;5119205;28;20269;-68
2021/04/24 10:22:19;;;;;;;3.73;2.97;;;;;;;;;;5106122;27;20232;-68
2021/04/24 10:24:46;;;;;;;4.67;3.20;;;;;;;;;;5115251;28;20280;-69
2021/04/24 10:27:15;;;;;;;4.13;3.13;;;;;;;;;;5105849;27;20198;-69
2021/04/24 10:29:42;;;;;;;3.53;3.13;;;;;;;;;;5119226;28;20204;-68
2021/04/24 10:32:10;;;;;;;4.60;3.37;;;;;;;;;;5104909;28;20293;-68
2021/04/24 10:34:37;;;;;;;3.63;3.10;;;;;;;;;;5110257;28;20239;-68
2021/04/24 10:37:04;;;;;;;4.57;2.90;;;;;;;;;;5112878;28;20604;-68
2021/04/24 10:39:32;;;;;;;6.53;3.10;;;;;;;;;;5118921;28;20237;-68
2021/04/24 10:42:01;;;;;;;5.00;3.37;;;;;;;;;;5105175;28;20236;-68
2021/04/24 10:47:41;;;;;;;4.90;3.60;;;;;;;;;;5121937;27;20572;-68
2021/04/24 10:50:10;;;;;;;3.23;2.63;;;;;;;;;;5111401;28;20283;-68
2021/04/24 10:52:38;;;;;;;4.63;3.50;;;;;;;;;;5095271;28;20265;-68
2021/04/24 10:55:20;;;;;;;3.37;2.87;;;;;;;;;;5109039;28;20316;-69
2021/04/24 10:57:51;;;;;;;5.03;2.67;;;;;;;;;;5106252;28;20204;-69
2021/04/24 11:00:19;;;;;;;3.80;3.50;;;;;;;;;;5110009;28;20280;-69
2021/04/24 11:02:47;;;;;;;3.07;2.87;;;;;;;;;;5101568;28;20637;-68
2021/04/24 11:05:27;;;;;;;3.90;3.07;;;;;;;;;;5115399;28;20292;-69
2021/04/24 11:08:14;;;;;;;4.33;2.80;;;;;;;;;;5103183;28;20240;-69
2021/04/24 11:10:42;;;;;;;3.27;3.03;;;;;;;;;;5099865;28;20268;-69
2021/04/24 11:13:10;;;;;;;4.50;2.27;;;;;;;;;;5113694;28;20284;-69
2021/04/24 11:15:37;;;;;;;2.73;2.17;;;;;;;;;;5112162;28;20221;-70
2021/04/24 11:18:06;;;;;;;4.60;2.90;;;;;;;;;;5104383;28;20293;-70
2021/04/24 11:20:48;;;;;;;4.10;2.60;;;;;;;;;;5110296;28;20197;-70
2021/04/24 11:23:35;;;;;;;3.30;2.40;;;;;;;;;;5108299;28;20198;-68
2021/04/24 11:26:03;;;;;;;3.40;3.10;;;;;;;;;;5103827;28;20311;-69
2021/04/24 11:28:30;;;;;;;4.03;2.90;;;;;;;;;;5104905;28;20197;-69
2021/04/24 11:30:58;;;;;;;3.97;2.63;;;;;;;;;;5113761;28;20271;-69
2021/04/24 11:33:33;;;;;;;2.30;2.10;;;;;;;;;;5096401;28;20603;-69
2021/04/24 11:36:16;;;;;;;4.10;2.47;;;;;;;;;;5109003;28;20303;-69
2021/04/24 11:39:04;;;;;;;2.83;2.63;;;;;;;;;;5114340;28;20287;-69
2021/04/24 11:41:31;;;;;;;4.53;2.60;;;;;;;;;;5103687;28;20236;-68
2021/04/24 11:43:59;;;;;;;4.00;2.83;;;;;;;;;;5100951;28;20288;-67
2021/04/24 11:46:35;;;;;;;4.30;3.07;;;;;;;;;;5112085;28;20292;-68
2021/04/24 11:49:07;;;;;;;7.23;4.03;;;;;;;;;;5113916;28;20214;-68
2021/04/24 11:51:45;;;;;;;3.47;2.93;;;;;;;;;;5109256;28;20200;-67
2021/04/24 11:54:15;;;;;;;4.67;2.90;;;;;;;;;;5096446;28;20217;-68
2021/04/24 11:56:45;;;;;;;3.30;3.00;;;;;;;;;;5096381;28;20667;-68
2021/04/24 11:59:13;;;;;;;3.87;3.27;;;;;;;;;;5100709;28;20710;-68
2021/04/24 12:01:40;;;;;;;5.63;2.93;;;;;;;;;;5093721;28;20197;-69
2021/04/24 12:04:22;;;;;;;5.13;2.77;;;;;;;;;;5087874;28;20229;-69
2021/04/24 12:06:58;;;;;;;3.00;2.70;;;;;;;;;;5089665;28;20304;-69
2021/04/24 12:09:25;;;;;;;2.87;2.53;;;;;;;;;;5100180;28;20583;-68
2021/04/24 12:11:56;;;;;;;4.47;2.90;;;;;;;;;;5099920;28;20265;-69
2021/04/24 12:14:24;;;;;;;3.10;2.57;;;;;;;;;;5086875;28;20306;-68
2021/04/24 12:16:51;;;;;;;3.20;2.10;;;;;;;;;;5087732;28;20278;-69
2021/04/24 12:19:28;;;;;;;4.80;2.63;;;;;;;;;;5099977;28;20201;-69
2021/04/24 12:22:03;;;;;;;2.63;2.33;;;;;;;;;;5096116;28;20200;-69
2021/04/24 12:24:30;;;;;;;4.83;2.50;;;;;;;;;;5099731;28;20225;-67
2021/04/24 12:26:57;;;;;;;2.60;2.40;;;;;;;;;;5099500;28;20304;-69
2021/04/24 12:29:49;;;;;;;3.07;2.73;;;;;;;;;;5086148;28;20284;-69
2021/04/24 12:32:17;;;;;;;2.17;1.97;;;;;;;;;;5073215;28;20197;-69
2021/04/24 12:34:44;;;;;;;5.43;2.77;;;;;;;;;;5097351;28;20225;-69
2021/04/24 12:37:14;;;;;;;2.47;2.27;;;;;;;;;;5090344;28;20288;-69
2021/04/24 12:39:42;;;;;;;3.40;2.30;;;;;;;;;;5088393;28;20287;-69
2021/04/24 12:42:10;;;;;;;2.37;2.20;;;;;;;;;;5090431;28;20202;-69
2021/04/24 12:44:38;;;;;;;2.73;2.53;;;;;;;;;;5089453;28;20222;-67
2021/04/24 12:47:05;;;;;;;2.53;2.13;;;;;;;;;;5088402;28;20313;-68
2021/04/24 12:49:33;;;;;;;5.07;2.00;;;;;;;;;;5088225;28;20598;-69
2021/04/24 12:52:01;;;;;;;2.13;1.93;;;;;;;;;;5085844;28;20749;-69
2021/04/24 12:54:29;;;;;;;2.30;1.93;;;;;;;;;;5089178;28;20227;-68
2021/04/24 12:57:18;;;;;;;2.40;2.20;;;;;;;;;;5086633;28;20283;-69
2021/04/24 12:59:47;;;;;;;2.30;1.70;;;;;;;;;;5079592;28;20279;-69
2021/04/24 13:02:15;;;;;;;2.47;2.10;;;;;;;;;;5079075;28;20708;-69
2021/04/24 13:04:58;;;;;;;4.30;2.10;;;;;;;;;;5096851;28;20222;-69
2021/04/24 13:07:25;;;;;;;1.97;1.77;;;;;;;;;;5085760;28;20220;-69
2021/04/24 13:09:53;;;;;;;2.67;1.73;;;;;;;;;;5090640;28;20200;-68
2021/04/24 13:12:20;;;;;;;2.20;2.00;;;;;;;;;;5094146;28;20629;-68
2021/04/24 13:14:47;;;;;;;2.13;1.80;;;;;;;;;;5079813;28;20222;-68
2021/04/24 13:17:16;;;;;;;1.63;1.53;;;;;;;;;;5077860;28;20201;-67
2021/04/24 13:19:47;;;;;;;1.43;1.33;;;;;;;;;;5078367;28;20258;-68
2021/04/24 13:22:29;;;;;;;3.33;1.50;;;;;;;;;;5080397;28;20202;-68
2021/04/24 13:24:57;;;;;;;1.93;1.30;;;;;;;;;;5083306;28;20259;-68
2021/04/24 13:27:24;;;;;;;1.73;1.63;;;;;;;;;;5097642;28;20312;-68
2021/04/24 13:29:52;;;;;;;1.57;1.27;;;;;;;;;;5099628;28;20291;-68
2021/04/24 13:32:19;;;;;;;1.63;1.43;;;;;;;;;;5094757;28;20235;-68
2021/04/24 13:34:47;;;;;;;1.67;1.57;;;;;;;;;;5096340;28;20684;-68
2021/04/24 13:37:20;;;;;;;2.90;1.80;;;;;;;;;;5087330;28;20211;-68
2021/04/24 13:39:48;;;;;;;2.53;2.10;;;;;;;;;;5096921;28;20217;-68
2021/04/24 13:42:18;;;;;;;2.33;1.60;;;;;;;;;;5084978;28;20213;-68
2021/04/24 13:44:45;;;;;;;3.43;1.70;;;;;;;;;;5098666;28;20775;-68
2021/04/24 13:47:22;;;;;;;1.97;1.77;;;;;;;;;;5084155;28;20258;-67
2021/04/24 13:49:50;;;;;;;2.43;1.70;;;;;;;;;;5097167;28;20208;-67
2021/04/24 13:52:18;;;;;;;1.70;1.60;;;;;;;;;;5087493;28;20293;-69
2021/04/24 13:54:46;;;;;;;1.70;1.60;;;;;;;;;;5090653;28;20304;-69
2021/04/24 13:57:13;;;;;;;2.63;1.80;;;;;;;;;;5098498;28;20231;-69
2021/04/24 13:59:41;;;;;;;1.97;1.57;;;;;;;;;;5098462;28;20212;-70
2021/04/24 14:02:08;;;;;;;1.80;1.70;;;;;;;;;;5098494;28;20212;-69
2021/04/24 14:04:35;;;;;;;3.20;1.80;;;;;;;;;;5098649;28;20224;-69
2021/04/24 14:07:02;;;;;;;2.13;1.73;;;;;;;;;;5098155;28;20322;-70
2021/04/24 14:09:30;;;;;;;2.50;1.80;;;;;;;;;;5095570;28;20288;-68
2021/04/24 14:11:57;;;;;;;2.00;1.60;;;;;;;;;;5098040;28;20206;-69
2021/04/24 14:14:26;;;;;;;1.80;1.70;;;;;;;;;;5098551;28;20230;-69
2021/04/24 14:16:54;;;;;;;1.40;1.30;;;;;;;;;;5098450;28;20232;-70
2021/04/24 14:19:21;;;;;;;3.40;1.30;;;;;;;;;;5099004;28;20234;-69
2021/04/24 14:21:51;;;;;;;1.57;1.40;;;;;;;;;;5098097;28;20198;-69
2021/04/24 14:24:18;;;;;;;2.90;1.80;;;;;;;;;;5098028;28;20201;-69
2021/04/24 14:26:45;;;;;;;1.57;1.47;;;;;;;;;;5087508;28;20644;-69
2021/04/24 14:29:13;;;;;;;1.60;1.50;;;;;;;;;;5097985;28;20241;-69
2021/04/24 14:31:40;;;;;;;2.20;1.70;;;;;;;;;;5098305;28;20208;-67
2021/04/24 14:34:08;;;;;;;2.07;1.83;;;;;;;;;;5097630;28;20207;-70
2021/04/24 14:36:35;;;;;;;4.50;1.63;;;;;;;;;;5098207;28;20198;-67
2021/04/24 14:39:03;;;;;;;2.17;1.90;;;;;;;;;;5097772;28;20293;-68
2021/04/24 14:41:30;;;;;;;2.77;2.10;;;;;;;;;;5097794;28;20246;-67
2021/04/24 14:43:57;;;;;;;2.50;1.83;;;;;;;;;;5093227;28;20269;-65
2021/04/24 14:46:24;;;;;;;1.63;1.53;;;;;;;;;;5097593;28;20276;-67
2021/04/24 14:48:51;;;;;;;2.40;1.30;;;;;;;;;;5097530;28;20197;-68
2021/04/24 14:51:20;;;;;;;3.60;2.17;;;;;;;;;;5098162;28;20303;-66